Time;durP1;ratioP1;P1;durP2;ratioP2;P2;SDS_P1;SDS_P2;PMS_P1;PMS_P2;Temp;Humidity;BMP_temperature;BMP_pressure;BME280_temperature;BME280_humidity;BME280_pressure;Samples;Min_cycle;Max_cycle;Signal;HPM_P1;HPM_P2
2022/08/27 00:01:17;;;;;;;16.13;8.13;;;26.00;99.90;;;;;;5086414;28;20098;-74
2022/08/27 00:03:45;;;;;;;12.48;8.88;;;26.00;99.90;;;;;;5069517;28;20040;-74
2022/08/27 00:06:14;;;;;;;11.68;8.25;;;26.00;99.90;;;;;;5069241;28;20490;-74
2022/08/27 00:08:43;;;;;;;10.43;6.95;;;26.00;99.90;;;;;;5069101;28;20044;-74
2022/08/27 00:11:11;;;;;;;12.50;7.40;;;26.00;99.90;;;;;;5069217;28;20040;-74
2022/08/27 00:13:39;;;;;;;13.32;8.93;;;26.00;99.90;;;;;;5052270;28;20079;-74
2022/08/27 00:16:09;;;;;;;16.08;8.27;;;26.00;99.90;;;;;;5070402;28;20055;-73
2022/08/27 00:18:38;;;;;;;16.75;8.52;;;26.00;99.90;;;;;;5069310;28;20109;-74
2022/08/27 00:21:07;;;;;;;14.82;9.20;;;26.00;99.90;;;;;;5070618;28;20554;-74
2022/08/27 00:23:35;;;;;;;14.30;7.63;;;26.00;99.90;;;;;;5052138;28;20064;-73
2022/08/27 00:26:05;;;;;;;12.68;8.18;;;26.00;99.90;;;;;;5069040;28;20040;-74
2022/08/27 00:28:33;;;;;;;15.15;7.20;;;26.00;99.90;;;;;;5050019;28;20530;-74
2022/08/27 00:31:01;;;;;;;15.27;9.27;;;26.00;99.90;;;;;;5048196;28;20056;-74
2022/08/27 00:33:29;;;;;;;12.25;7.70;;;26.00;99.90;;;;;;5032287;28;20072;-74
2022/08/27 00:35:57;;;;;;;12.60;7.13;;;26.00;99.90;;;;;;5065685;28;20056;-74
2022/08/27 00:38:26;;;;;;;11.20;8.27;;;26.00;99.90;;;;;;5065567;28;20060;-74
2022/08/27 00:40:54;;;;;;;10.73;7.93;;;26.00;99.90;;;;;;5050242;28;20515;-74
2022/08/27 00:43:28;;;;;;;14.35;8.40;;;25.90;99.90;;;;;;5048494;28;20037;-73
2022/08/27 00:46:05;;;;;;;12.63;7.30;;;25.90;99.90;;;;;;5049018;28;20500;-73
2022/08/27 00:48:35;;;;;;;12.43;7.40;;;25.90;99.90;;;;;;5048624;28;20045;-73
2022/08/27 00:51:05;;;;;;;13.32;8.15;;;25.90;99.90;;;;;;5049220;28;20060;-75
2022/08/27 00:53:34;;;;;;;11.38;7.78;;;25.90;99.90;;;;;;5065446;28;20045;-74
2022/08/27 00:56:16;;;;;;;14.55;7.70;;;25.80;99.90;;;;;;5065853;28;20069;-75
2022/08/27 00:58:48;;;;;;;10.82;7.63;;;25.80;99.90;;;;;;5049139;28;20045;-75
2022/08/27 01:01:19;;;;;;;13.75;9.18;;;25.80;99.90;;;;;;5049506;28;20075;-75
2022/08/27 01:03:51;;;;;;;17.77;9.18;;;25.70;99.90;;;;;;5050071;28;20056;-75
2022/08/27 01:06:20;;;;;;;12.85;8.40;;;25.70;99.90;;;;;;5065807;28;20049;-75
2022/08/27 01:09:00;;;;;;;15.57;10.80;;;25.60;99.90;;;;;;5048812;28;20048;-75
2022/08/27 01:11:28;;;;;;;12.30;9.00;;;25.60;99.90;;;;;;5081865;28;20131;-75
2022/08/27 01:13:56;;;;;;;14.77;9.10;;;25.60;99.90;;;;;;5069536;28;20040;-75
2022/08/27 01:16:28;;;;;;;16.90;9.60;;;25.60;99.90;;;;;;5070185;28;20040;-75
2022/08/27 01:18:59;;;;;;;13.82;8.43;;;25.60;99.90;;;;;;5070263;28;20131;-75
2022/08/27 01:22:05;;;;;;;13.43;8.80;;;25.60;99.90;;;;;;5069077;28;20087;-75
2022/08/27 01:24:44;;;;;;;16.85;9.48;;;25.50;99.90;;;;;;5068087;28;20055;-75
2022/08/27 01:27:16;;;;;;;12.70;8.82;;;25.50;99.90;;;;;;5069034;28;20430;-75
2022/08/27 01:29:44;;;;;;;14.85;9.35;;;25.40;99.90;;;;;;5068935;28;20064;-75
2022/08/27 01:32:16;;;;;;;12.43;9.30;;;25.40;99.90;;;;;;5068991;28;20045;-75
2022/08/27 01:34:43;;;;;;;16.13;8.35;;;25.30;99.90;;;;;;5051985;28;20073;-75
2022/08/27 01:37:14;;;;;;;12.93;8.93;;;25.20;99.90;;;;;;5068766;28;20160;-75
2022/08/27 01:39:43;;;;;;;18.55;10.07;;;25.20;99.90;;;;;;5068472;28;20094;-75
2022/08/27 01:42:30;;;;;;;16.25;8.55;;;25.20;99.90;;;;;;5086180;28;20488;-75
2022/08/27 01:45:03;;;;;;;13.70;8.80;;;25.20;99.90;;;;;;5055834;28;20055;-75
2022/08/27 01:47:30;;;;;;;14.90;9.57;;;25.10;99.90;;;;;;5072069;28;20086;-75
2022/08/27 01:49:59;;;;;;;15.00;8.82;;;25.10;99.90;;;;;;5056010;28;20080;-75
2022/08/27 01:52:29;;;;;;;13.40;8.18;;;25.10;99.90;;;;;;5073462;28;20072;-75
2022/08/27 01:54:57;;;;;;;16.40;8.40;;;25.10;99.90;;;;;;5072536;28;20044;-75
2022/08/27 01:57:25;;;;;;;19.13;8.85;;;25.20;99.90;;;;;;5089047;28;20148;-75
2022/08/27 01:59:56;;;;;;;16.77;9.20;;;25.20;99.90;;;;;;5055388;28;20098;-75
2022/08/27 02:02:24;;;;;;;13.30;8.82;;;25.20;99.90;;;;;;5071985;28;20131;-75
2022/08/27 02:04:52;;;;;;;17.52;9.23;;;25.10;99.90;;;;;;5073365;28;20487;-75
2022/08/27 02:07:19;;;;;;;14.15;9.15;;;25.10;99.90;;;;;;5069560;28;20055;-75
2022/08/27 02:09:47;;;;;;;16.27;9.93;;;25.10;99.90;;;;;;5071886;28;20459;-75
2022/08/27 02:12:14;;;;;;;13.02;8.85;;;25.10;99.90;;;;;;5071976;28;20053;-75
2022/08/27 02:14:42;;;;;;;14.45;8.93;;;25.00;99.90;;;;;;5088913;28;20045;-75
2022/08/27 02:17:11;;;;;;;16.23;9.38;;;24.90;99.90;;;;;;5073137;28;20040;-75
2022/08/27 02:19:38;;;;;;;15.05;8.88;;;24.90;99.90;;;;;;5071564;28;20044;-75
2022/08/27 02:22:06;;;;;;;15.80;9.40;;;24.80;99.90;;;;;;5088558;28;20111;-75
2022/08/27 02:24:33;;;;;;;17.05;9.68;;;24.80;99.90;;;;;;5071763;28;20052;-75
2022/08/27 02:27:01;;;;;;;12.50;7.35;;;24.80;99.90;;;;;;5072709;28;20044;-75
2022/08/27 02:29:29;;;;;;;16.23;8.30;;;24.80;99.90;;;;;;5072562;28;20449;-75
2022/08/27 02:31:56;;;;;;;14.55;8.98;;;24.80;99.90;;;;;;5072904;28;20043;-75
2022/08/27 02:34:23;;;;;;;14.43;8.52;;;24.80;99.90;;;;;;5071678;28;20051;-75
2022/08/27 02:36:52;;;;;;;18.35;9.27;;;24.80;99.90;;;;;;5071241;28;20053;-75
2022/08/27 02:39:20;;;;;;;14.52;9.02;;;24.80;99.90;;;;;;5072612;28;20040;-75
2022/08/27 02:41:48;;;;;;;17.50;9.23;;;24.80;99.90;;;;;;5088114;28;20135;-75
2022/08/27 02:44:15;;;;;;;14.65;9.35;;;24.80;99.90;;;;;;5072864;28;20140;-75
2022/08/27 02:46:43;;;;;;;15.93;8.73;;;24.80;99.90;;;;;;5088188;28;20051;-75
2022/08/27 02:49:11;;;;;;;13.50;8.32;;;24.80;99.90;;;;;;5071091;28;20502;-75
2022/08/27 02:51:38;;;;;;;14.77;9.68;;;24.80;99.90;;;;;;5071101;28;20044;-74
2022/08/27 02:54:06;;;;;;;13.32;9.60;;;24.80;99.90;;;;;;5053606;28;20486;-75
2022/08/27 02:56:34;;;;;;;13.27;8.45;;;24.80;99.90;;;;;;5087571;28;20056;-75
2022/08/27 02:59:01;;;;;;;13.25;8.10;;;24.80;99.90;;;;;;5087824;28;20503;-74
2022/08/27 03:01:29;;;;;;;12.18;8.55;;;24.70;99.90;;;;;;5083617;28;20159;-75
2022/08/27 03:03:57;;;;;;;14.25;9.25;;;24.80;99.90;;;;;;5104802;28;20048;-75
2022/08/27 03:06:24;;;;;;;25.30;10.40;;;24.80;99.90;;;;;;5068792;28;20122;-75
2022/08/27 03:08:52;;;;;;;17.88;9.82;;;24.70;99.90;;;;;;5050808;28;20056;-75
2022/08/27 03:11:22;;;;;;;14.35;10.52;;;24.80;99.90;;;;;;5097886;28;20071;-75
2022/08/27 03:13:50;;;;;;;17.05;9.60;;;24.80;99.90;;;;;;5087663;28;20532;-75
2022/08/27 03:16:18;;;;;;;14.38;9.57;;;24.80;99.90;;;;;;5070602;28;20060;-75
2022/08/27 03:18:46;;;;;;;14.10;9.02;;;24.80;99.90;;;;;;5071789;28;20483;-75
2022/08/27 03:21:18;;;;;;;15.02;10.45;;;24.80;99.90;;;;;;5087354;28;20482;-75
2022/08/27 03:23:47;;;;;;;20.40;9.63;;;24.70;99.90;;;;;;5069992;28;20167;-75
2022/08/27 03:26:15;;;;;;;15.55;8.90;;;24.70;99.90;;;;;;5071517;28;20037;-75
2022/08/27 03:28:43;;;;;;;14.00;8.40;;;24.70;99.90;;;;;;5070318;28;20040;-75
2022/08/27 03:31:25;;;;;;;16.38;11.43;;;24.70;99.90;;;;;;5070013;28;20065;-72
2022/08/27 03:33:56;;;;;;;14.77;8.82;;;24.70;99.90;;;;;;5070388;28;20056;-72
2022/08/27 03:36:25;;;;;;;12.43;7.63;;;24.70;99.90;;;;;;5104254;28;20036;-73
2022/08/27 03:38:53;;;;;;;18.13;9.27;;;24.70;99.90;;;;;;5103986;28;20040;-72
2022/08/27 03:41:21;;;;;;;13.43;8.55;;;24.70;99.90;;;;;;5053224;28;20048;-73
2022/08/27 03:43:51;;;;;;;12.02;7.78;;;24.70;99.90;;;;;;5069950;28;20044;-72
2022/08/27 03:46:20;;;;;;;13.13;8.43;;;24.70;99.90;;;;;;5070086;28;20048;-73
2022/08/27 03:48:48;;;;;;;12.70;8.00;;;24.70;99.90;;;;;;5070983;28;20044;-73
2022/08/27 03:51:16;;;;;;;16.13;8.45;;;24.70;99.90;;;;;;5103845;28;20131;-73
2022/08/27 03:53:45;;;;;;;13.70;9.00;;;24.70;99.90;;;;;;5086486;28;20049;-73
2022/08/27 03:56:14;;;;;;;15.38;9.10;;;24.70;99.90;;;;;;5065883;28;20045;-73
2022/08/27 03:58:41;;;;;;;13.18;8.18;;;24.70;99.90;;;;;;5066264;28;20048;-73
2022/08/27 04:01:09;;;;;;;13.88;8.13;;;24.70;99.90;;;;;;5082946;28;20462;-73
2022/08/27 04:03:36;;;;;;;15.43;8.90;;;24.70;99.90;;;;;;5083116;28;20049;-73
2022/08/27 04:06:04;;;;;;;14.95;9.20;;;24.70;99.90;;;;;;5050768;28;20037;-73
2022/08/27 04:08:32;;;;;;;15.63;9.35;;;24.70;99.90;;;;;;5049486;28;20073;-73
2022/08/27 04:11:03;;;;;;;14.43;8.65;;;24.70;99.90;;;;;;5049712;28;20059;-73
2022/08/27 04:13:30;;;;;;;12.32;8.55;;;24.70;99.90;;;;;;5083016;28;20136;-73
2022/08/27 04:15:58;;;;;;;15.00;8.63;;;24.70;99.90;;;;;;5050831;28;20045;-73
2022/08/27 04:18:26;;;;;;;16.50;8.68;;;24.70;99.90;;;;;;5050725;28;20041;-73
2022/08/27 04:20:53;;;;;;;13.48;8.65;;;24.70;99.90;;;;;;5049881;28;20384;-73
2022/08/27 04:23:21;;;;;;;13.85;7.93;;;24.70;99.90;;;;;;5049151;28;20506;-73
2022/08/27 04:25:49;;;;;;;10.68;7.25;;;24.70;99.90;;;;;;5050683;28;20500;-73
2022/08/27 04:28:16;;;;;;;14.98;8.10;;;24.70;99.90;;;;;;5065930;28;20068;-73
2022/08/27 04:30:45;;;;;;;14.10;7.85;;;24.80;99.90;;;;;;5049231;28;20934;-73
2022/08/27 04:33:13;;;;;;;12.77;8.65;;;24.80;99.90;;;;;;5083241;28;20060;-73
2022/08/27 04:35:42;;;;;;;18.23;8.82;;;24.80;99.90;;;;;;5049260;28;20083;-73
2022/08/27 04:38:09;;;;;;;12.48;7.40;;;24.80;99.90;;;;;;5050607;28;20041;-73
2022/08/27 04:43:25;;;;;;;;;;;24.90;99.90;;;;;;5083522;28;20040;-73
2022/08/27 04:45:52;;;;;;;11.70;7.60;;;24.90;99.90;;;;;;5066150;28;19927;-73
2022/08/27 04:48:20;;;;;;;9.45;6.85;;;25.10;99.90;;;;;;5066022;28;20045;-73
2022/08/27 04:50:48;;;;;;;15.40;8.77;;;25.10;99.90;;;;;;5065774;28;20045;-73
2022/08/27 04:53:16;;;;;;;11.27;8.35;;;25.20;99.90;;;;;;5050494;28;20131;-73
2022/08/27 04:55:50;;;;;;;11.90;7.28;;;25.30;99.90;;;;;;5049019;28;20041;-73
2022/08/27 04:58:19;;;;;;;13.35;8.05;;;25.40;99.90;;;;;;5049819;28;20510;-73
2022/08/27 05:00:49;;;;;;;11.32;7.60;;;25.40;99.90;;;;;;5049493;28;20045;-73
2022/08/27 05:03:22;;;;;;;12.40;7.78;;;25.50;99.90;;;;;;5032876;28;20057;-73
2022/08/27 05:05:51;;;;;;;13.07;8.05;;;25.70;99.90;;;;;;5032467;28;20049;-73
2022/08/27 05:08:18;;;;;;;15.77;8.98;;;25.70;99.90;;;;;;5049186;28;20085;-73
2022/08/27 05:10:49;;;;;;;25.50;15.45;;;25.80;99.90;;;;;;5049117;28;20099;-73
2022/08/27 05:13:19;;;;;;;23.80;14.18;;;26.00;99.90;;;;;;5082599;28;20048;-73
2022/08/27 05:15:47;;;;;;;19.00;11.80;;;26.00;99.90;;;;;;5032709;28;20053;-73
2022/08/27 05:18:15;;;;;;;18.35;11.93;;;26.20;99.90;;;;;;5051716;28;20128;-73
2022/08/27 05:20:47;;;;;;;15.75;9.35;;;26.30;99.90;;;;;;5052983;28;20115;-73
2022/08/27 05:23:17;;;;;;;15.13;9.50;;;26.40;99.90;;;;;;5054034;28;20051;-73
2022/08/27 05:25:47;;;;;;;12.63;7.97;;;26.50;99.90;;;;;;5053872;28;20403;-73
2022/08/27 05:28:16;;;;;;;13.32;7.53;;;26.60;99.90;;;;;;5053079;28;20053;-73
2022/08/27 05:30:48;;;;;;;10.50;6.70;;;26.70;99.90;;;;;;5036018;28;20099;-73
2022/08/27 05:33:20;;;;;;;9.70;6.07;;;26.80;99.90;;;;;;5069505;28;20049;-73
2022/08/27 05:35:51;;;;;;;11.35;6.03;;;26.90;99.90;;;;;;5052670;28;20051;-73
2022/08/27 05:38:20;;;;;;;10.95;6.68;;;27.10;99.90;;;;;;5069353;28;20083;-73
2022/08/27 05:40:48;;;;;;;11.10;6.43;;;27.20;99.90;;;;;;5053008;28;20044;-73
2022/08/27 05:43:17;;;;;;;11.80;6.35;;;27.30;99.90;;;;;;5036157;28;20076;-73
2022/08/27 05:45:47;;;;;;;12.98;6.05;;;27.40;99.90;;;;;;5069778;28;20044;-73
2022/08/27 05:48:15;;;;;;;11.52;6.55;;;27.40;99.90;;;;;;5072504;28;20399;-73
2022/08/27 05:50:44;;;;;;;8.00;6.40;;;27.60;99.90;;;;;;5072312;28;20085;-73
2022/08/27 05:53:12;;;;;;;9.70;6.00;;;27.70;99.90;;;;;;5072355;28;20048;-73
2022/08/27 05:55:42;;;;;;;8.88;6.10;;;27.70;99.90;;;;;;5072203;28;20044;-73
2022/08/27 06:01:03;;;;;;;10.10;6.75;;;27.90;99.90;;;;;;5073595;28;20044;-73
2022/08/27 06:01:06;;;;;;;11.60;6.70;;;28.00;99.90;;;;;;5073282;28;20046;-74
2022/08/27 06:03:37;;;;;;;10.02;6.50;;;28.10;99.90;;;;;;5072244;28;20147;-73
2022/08/27 06:06:08;;;;;;;10.40;7.25;;;28.30;99.90;;;;;;5088890;28;20118;-73
2022/08/27 06:08:37;;;;;;;10.88;6.95;;;28.40;99.90;;;;;;5073401;28;20048;-73
2022/08/27 06:11:06;;;;;;;11.65;6.97;;;28.60;99.90;;;;;;5071889;28;20048;-73
2022/08/27 06:13:35;;;;;;;9.10;5.90;;;28.70;99.90;;;;;;5071422;28;20037;-74
2022/08/27 06:16:12;;;;;;;10.43;6.18;;;28.80;99.90;;;;;;5105690;28;20040;-73
2022/08/27 06:18:42;;;;;;;7.20;5.45;;;29.00;99.90;;;;;;5072342;28;20087;-73
2022/08/27 06:21:11;;;;;;;11.73;5.93;;;29.10;99.90;;;;;;5088735;28;20475;-73
2022/08/27 06:23:39;;;;;;;10.88;6.32;;;29.20;99.90;;;;;;5088432;28;20052;-73
2022/08/27 06:26:12;;;;;;;8.98;5.63;;;29.40;99.90;;;;;;5072940;28;20041;-73
2022/08/27 06:28:40;;;;;;;11.80;6.38;;;29.40;99.90;;;;;;5070707;28;20053;-73
2022/08/27 06:31:13;;;;;;;8.68;5.72;;;29.50;99.90;;;;;;5055203;28;20048;-73
2022/08/27 06:33:43;;;;;;;8.23;4.90;;;29.60;99.90;;;;;;5070406;28;20056;-73
2022/08/27 06:36:13;;;;;;;8.13;5.53;;;29.70;99.90;;;;;;5071391;28;20052;-73
2022/08/27 06:38:44;;;;;;;7.43;5.63;;;29.80;99.80;;;;;;5071526;28;20090;-73
2022/08/27 06:41:13;;;;;;;7.07;4.70;;;29.90;99.30;;;;;;5071922;28;20052;-73
2022/08/27 06:43:42;;;;;;;8.35;6.03;;;30.00;98.70;;;;;;5088435;28;20053;-73
2022/08/27 06:46:13;;;;;;;8.38;4.82;;;30.10;98.50;;;;;;5072801;28;20410;-73
2022/08/27 06:48:43;;;;;;;9.40;5.18;;;30.20;98.20;;;;;;5105150;28;20449;-73
2022/08/27 06:51:15;;;;;;;6.55;4.60;;;30.30;97.80;;;;;;5071441;28;20045;-73
2022/08/27 06:53:45;;;;;;;7.38;4.63;;;30.50;97.50;;;;;;5054755;28;20164;-73
2022/08/27 06:56:15;;;;;;;8.10;4.78;;;30.50;96.90;;;;;;5038200;28;20060;-73
2022/08/27 06:58:43;;;;;;;11.93;5.65;;;30.60;96.70;;;;;;5072451;28;20074;-74
2022/08/27 07:01:17;;;;;;;11.50;5.70;;;30.70;96.30;;;;;;5104665;28;20045;-74
2022/08/27 07:03:45;;;;;;;7.65;4.80;;;30.80;95.90;;;;;;5070770;28;20044;-75
2022/08/27 07:06:15;;;;;;;5.72;4.20;;;30.90;95.80;;;;;;5069045;28;20032;-73
2022/08/27 07:08:44;;;;;;;6.97;4.35;;;31.00;95.30;;;;;;5069692;28;20056;-74
2022/08/27 07:11:13;;;;;;;7.97;4.97;;;31.10;94.50;;;;;;5103402;28;20462;-70
2022/08/27 07:13:42;;;;;;;9.65;5.55;;;31.20;94.00;;;;;;5068880;28;20568;-71
2022/08/27 07:16:12;;;;;;;7.18;4.57;;;31.30;93.60;;;;;;5078477;28;20098;-71
2022/08/27 07:18:40;;;;;;;8.55;4.10;;;31.40;93.10;;;;;;5059062;28;20513;-72
2022/08/27 07:21:10;;;;;;;5.65;4.28;;;31.50;92.70;;;;;;5084854;28;20040;-72
2022/08/27 07:23:38;;;;;;;5.78;4.20;;;31.50;92.40;;;;;;5036982;28;20113;-72
2022/08/27 07:26:11;;;;;;;5.65;4.03;;;31.60;92.50;;;;;;5059193;28;20124;-72
2022/08/27 07:28:41;;;;;;;9.20;4.43;;;31.60;92.40;;;;;;5069139;28;20141;-72
2022/08/27 07:31:15;;;;;;;12.25;4.45;;;31.70;92.40;;;;;;5085435;28;20186;-71
2022/08/27 07:33:44;;;;;;;6.72;5.05;;;31.80;92.10;;;;;;5070081;28;20487;-72
2022/08/27 07:36:13;;;;;;;7.10;4.45;;;31.90;91.50;;;;;;5102378;28;20403;-73
2022/08/27 07:38:41;;;;;;;10.18;4.50;;;31.90;91.70;;;;;;5071899;28;20052;-73
2022/08/27 07:41:11;;;;;;;7.85;3.58;;;31.90;91.70;;;;;;5103658;28;20070;-73
2022/08/27 07:46:25;;;;;;;6.45;4.13;;;32.10;91.10;;;;;;5053936;28;20047;-73
2022/08/27 07:48:55;;;;;;;6.40;3.97;;;32.10;91.20;;;;;;5037431;28;20593;-73
2022/08/27 07:51:25;;;;;;;7.72;4.75;;;32.10;91.40;;;;;;5053551;28;20049;-73
2022/08/27 07:53:54;;;;;;;7.07;4.40;;;32.10;91.70;;;;;;5070277;28;20052;-73
2022/08/27 07:56:22;;;;;;;8.38;4.70;;;32.20;91.90;;;;;;5070003;28;20163;-73
2022/08/27 07:58:50;;;;;;;7.10;5.00;;;32.20;92.00;;;;;;5070403;28;20110;-73
2022/08/27 08:01:17;;;;;;;5.93;4.90;;;32.30;92.10;;;;;;5070073;28;20120;-73
2022/08/27 08:03:45;;;;;;;8.80;4.30;;;32.40;92.00;;;;;;5069909;28;20174;-73
2022/08/27 08:06:15;;;;;;;5.28;4.20;;;32.50;92.00;;;;;;5053576;28;20045;-72
2022/08/27 08:08:44;;;;;;;6.65;4.30;;;32.50;92.10;;;;;;5103297;28;20041;-72
2022/08/27 08:11:14;;;;;;;6.85;4.25;;;32.50;92.10;;;;;;5070154;28;20048;-73
2022/08/27 08:13:43;;;;;;;8.85;4.40;;;32.40;91.70;;;;;;5052773;28;20538;-72
2022/08/27 08:16:12;;;;;;;8.60;5.00;;;32.30;91.90;;;;;;5069841;28;20044;-73
2022/08/27 08:18:40;;;;;;;6.63;3.95;;;32.20;92.00;;;;;;5070896;28;20055;-73
2022/08/27 08:21:11;;;;;;;6.93;4.97;;;32.30;91.80;;;;;;5069827;28;20048;-72
2022/08/27 08:23:39;;;;;;;9.35;4.68;;;32.30;90.90;;;;;;5070697;28;20048;-73
2022/08/27 08:26:08;;;;;;;11.18;4.45;;;32.40;91.00;;;;;;5071145;28;20447;-73
2022/08/27 08:28:38;;;;;;;7.82;4.30;;;32.40;90.50;;;;;;5069722;28;20044;-73
2022/08/27 08:31:07;;;;;;;9.35;4.85;;;32.50;90.30;;;;;;5102971;28;20518;-73
2022/08/27 08:33:35;;;;;;;5.65;3.78;;;32.60;90.60;;;;;;5070753;28;20133;-73
2022/08/27 08:36:08;;;;;;;8.23;4.85;;;32.80;90.70;;;;;;5086490;28;20052;-74
2022/08/27 08:38:37;;;;;;;7.63;4.25;;;33.00;90.70;;;;;;5068805;28;20044;-73
2022/08/27 08:41:18;;;;;;;7.53;4.07;;;33.10;90.00;;;;;;5069564;28;20048;-73
2022/08/27 08:43:54;;;;;;;10.10;4.85;;;33.10;89.70;;;;;;5053146;28;20057;-73
2022/08/27 08:46:48;;;;;;;6.90;4.22;;;33.30;90.20;;;;;;5103082;28;20057;-72
2022/08/27 08:49:25;;;;;;;10.27;5.05;;;33.30;89.80;;;;;;5052761;28;20044;-72
2022/08/27 08:52:00;;;;;;;8.25;4.35;;;33.30;89.80;;;;;;5069006;28;20056;-73
2022/08/27 08:54:31;;;;;;;12.43;4.80;;;33.40;89.90;;;;;;5086350;28;20114;-72
2022/08/27 08:57:08;;;;;;;9.98;4.90;;;33.40;89.90;;;;;;5069221;28;20040;-72
2022/08/27 08:59:40;;;;;;;13.43;5.95;;;33.40;89.40;;;;;;5066828;28;20049;-72
2022/08/27 09:02:12;;;;;;;9.23;4.78;;;33.40;89.20;;;;;;5070553;28;20068;-72
2022/08/27 09:04:41;;;;;;;7.68;4.15;;;33.50;89.00;;;;;;5069178;28;20090;-72
2022/08/27 09:07:44;;;;;;;14.60;5.10;;;33.40;88.70;;;;;;5068796;28;20403;-73
2022/08/27 09:10:21;;;;;;;9.52;4.35;;;33.40;88.80;;;;;;5069310;28;20052;-72
2022/08/27 09:12:54;;;;;;;7.50;4.47;;;33.50;88.90;;;;;;5069129;28;20079;-72
2022/08/27 09:15:26;;;;;;;11.10;4.97;;;33.60;88.80;;;;;;5068988;28;20714;-72
2022/08/27 09:18:08;;;;;;;7.45;4.72;;;33.50;85.50;;;;;;5070241;28;20037;-72
2022/08/27 09:20:37;;;;;;;10.60;5.63;;;33.20;87.20;;;;;;5069514;28;20048;-72
2022/08/27 09:23:09;;;;;;;8.57;4.65;;;33.00;86.50;;;;;;5070337;28;20101;-73
2022/08/27 09:25:40;;;;;;;7.82;4.53;;;33.00;86.70;;;;;;5102248;28;20045;-72
2022/08/27 09:31:05;;;;;;;15.35;5.47;;;33.10;87.70;;;;;;5051930;28;20060;-73
2022/08/27 09:33:32;;;;;;;9.27;5.15;;;33.10;87.50;;;;;;5085437;28;20175;-73
2022/08/27 09:36:03;;;;;;;13.20;6.38;;;33.20;87.90;;;;;;5085937;28;20155;-72
2022/08/27 09:38:33;;;;;;;11.77;5.45;;;33.10;88.40;;;;;;5069176;28;20060;-72
2022/08/27 09:41:16;;;;;;;12.50;5.30;;;33.10;88.40;;;;;;5068885;28;20105;-73
2022/08/27 09:43:44;;;;;;;11.75;5.10;;;33.20;86.60;;;;;;5052438;28;20075;-73
2022/08/27 09:46:30;;;;;;;11.38;4.80;;;33.00;86.80;;;;;;5085447;28;20392;-73
2022/08/27 09:49:12;;;;;;;15.10;4.88;;;33.00;87.60;;;;;;5102328;28;20127;-73
2022/08/27 09:51:42;;;;;;;12.45;5.13;;;33.10;87.40;;;;;;5100382;28;20068;-73
2022/08/27 09:54:11;;;;;;;11.57;4.25;;;33.00;87.30;;;;;;5069067;28;20045;-73
2022/08/27 09:56:47;;;;;;;7.72;4.70;;;33.10;87.90;;;;;;5102146;28;20407;-73
2022/08/27 09:59:32;;;;;;;8.20;4.18;;;33.20;87.90;;;;;;5068829;28;20044;-73
2022/08/27 10:02:15;;;;;;;8.07;5.43;;;33.40;87.40;;;;;;5052210;28;20544;-73
2022/08/27 10:04:44;;;;;;;13.43;6.55;;;33.20;86.10;;;;;;5071986;28;20110;-73
2022/08/27 10:07:37;;;;;;;9.20;5.15;;;32.90;86.50;;;;;;5106189;28;20047;-73
2022/08/27 10:10:16;;;;;;;9.65;4.55;;;32.80;86.60;;;;;;5089085;28;20049;-72
2022/08/27 10:12:50;;;;;;;9.45;4.78;;;32.50;87.40;;;;;;5072496;28;20071;-72
2022/08/27 10:15:18;;;;;;;7.97;4.65;;;32.30;86.90;;;;;;5089043;28;20143;-73
2022/08/27 10:18:07;;;;;;;9.13;4.65;;;32.40;87.20;;;;;;5105656;28;20063;-72
2022/08/27 10:20:56;;;;;;;9.98;4.47;;;32.50;87.50;;;;;;5088723;28;20499;-71
2022/08/27 10:23:42;;;;;;;8.27;4.80;;;32.80;87.20;;;;;;5073086;28;20041;-71
2022/08/27 10:26:36;;;;;;;9.88;5.05;;;32.90;88.80;;;;;;5105357;28;20040;-73
2022/08/27 10:29:07;;;;;;;10.73;4.72;;;32.90;89.70;;;;;;5088212;28;20383;-72
2022/08/27 10:31:50;;;;;;;11.05;4.43;;;33.00;89.40;;;;;;5105160;28;20124;-72
2022/08/27 10:35:00;;;;;;;9.13;4.00;;;33.10;89.80;;;;;;5073092;28;20045;-71
2022/08/27 10:37:51;;;;;;;9.90;5.13;;;33.10;88.80;;;;;;5071367;28;20041;-71
2022/08/27 10:40:55;;;;;;;9.00;4.50;;;33.10;88.60;;;;;;5105291;28;20041;-71
2022/08/27 10:43:50;;;;;;;8.98;5.55;;;33.00;88.90;;;;;;5069153;28;20048;-72
2022/08/27 10:46:30;;;;;;;12.00;5.30;;;32.80;89.90;;;;;;5072799;28;20136;-71
2022/08/27 10:49:20;;;;;;;9.68;4.43;;;32.70;89.70;;;;;;5088273;28;20055;-71
2022/08/27 10:52:06;;;;;;;7.55;4.70;;;32.80;90.20;;;;;;5088175;28;20095;-71
2022/08/27 10:54:42;;;;;;;10.30;4.03;;;32.90;90.10;;;;;;5088058;28;20791;-72
2022/08/27 10:57:15;;;;;;;;;;;33.00;89.20;;;;;;5071916;28;20119;-71
2022/08/27 11:00:11;;;;;;;7.35;4.38;;;33.00;89.30;;;;;;5069317;28;20043;-72
2022/08/27 11:02:53;;;;;;;8.43;4.72;;;32.90;89.60;;;;;;5087461;28;20048;-72
2022/08/27 11:05:29;;;;;;;11.23;4.85;;;32.90;88.50;;;;;;5070766;28;20049;-72
2022/08/27 11:08:07;;;;;;;10.98;4.13;;;32.50;88.20;;;;;;5071068;28;20102;-72
2022/08/27 11:11:05;;;;;;;8.75;5.30;;;32.20;89.80;;;;;;5104123;28;20054;-72
2022/08/27 11:13:51;;;;;;;44.17;40.72;;;32.30;89.10;;;;;;5085395;28;20051;-72
2022/08/27 11:16:26;;;;;;;60.28;55.55;;;32.50;89.20;;;;;;5070299;28;20044;-74
2022/08/27 11:19:04;;;;;;;17.60;15.93;;;32.60;89.50;;;;;;5053895;28;20080;-71
2022/08/27 11:21:37;;;;;;;11.23;7.50;;;32.80;90.00;;;;;;5070135;28;20513;-73
2022/08/27 11:24:25;;;;;;;10.32;5.75;;;33.00;90.90;;;;;;5070660;28;20110;-73
2022/08/27 11:26:59;;;;;;;39.05;24.67;;;33.00;90.50;;;;;;5070684;28;20499;-72
2022/08/27 11:29:37;;;;;;;17.40;11.80;;;32.90;90.60;;;;;;5066156;28;20041;-71
2022/08/27 11:32:34;;;;;;;126.40;93.22;;;32.70;90.50;;;;;;5047236;28;20403;-72
2022/08/27 11:35:17;;;;;;;36.40;26.95;;;32.50;90.60;;;;;;5075841;28;20495;-71
2022/08/27 11:38:03;;;;;;;72.97;49.10;;;32.00;90.80;;;;;;5086874;28;20052;-71
2022/08/27 11:41:11;;;;;;;1070.25;720.58;;;31.80;90.90;;;;;;5050303;28;20053;-72
2022/08/27 11:43:39;;;;;;;560.92;451.48;;;31.80;91.50;;;;;;5067745;28;20076;-72
2022/08/27 11:46:08;;;;;;;658.13;497.48;;;31.60;91.20;;;;;;5042046;28;20049;-72
2022/08/27 11:48:39;;;;;;;176.52;112.40;;;31.60;91.10;;;;;;5082916;28;20055;-72
2022/08/27 11:51:25;;;;;;;346.45;241.45;;;31.60;91.20;;;;;;5061349;28;20044;-72
2022/08/27 11:54:02;;;;;;;221.55;151.68;;;31.60;91.00;;;;;;5067572;28;20048;-72
2022/08/27 11:56:31;;;;;;;170.30;114.80;;;31.50;90.90;;;;;;5079563;28;20053;-72
2022/08/27 11:59:26;;;;;;;432.00;327.80;;;31.70;90.70;;;;;;5068390;28;20086;-71
2022/08/27 12:01:59;;;;;;;678.58;501.38;;;31.90;90.70;;;;;;5038002;28;20135;-71
2022/08/27 12:04:30;;;;;;;480.40;369.88;;;32.00;90.20;;;;;;5063137;28;20608;-71
2022/08/27 12:07:06;;;;;;;458.67;339.38;;;32.10;89.90;;;;;;5049617;28;20059;-72
2022/08/27 12:10:02;;;;;;;66.68;49.00;;;32.20;89.50;;;;;;5066478;28;20033;-72
2022/08/27 12:12:58;;;;;;;32.92;22.52;;;32.10;89.30;;;;;;5072158;28;20056;-72
2022/08/27 12:16:00;;;;;;;34.60;25.35;;;32.00;88.90;;;;;;5094733;28;20049;-72
2022/08/27 12:18:46;;;;;;;10.07;6.25;;;32.00;89.50;;;;;;5056516;28;20052;-72
2022/08/27 12:21:32;;;;;;;8.05;5.03;;;31.80;91.00;;;;;;5070484;28;20045;-71
2022/08/27 12:24:00;;;;;;;10.23;6.75;;;31.60;91.20;;;;;;5064539;28;20045;-71
2022/08/27 12:26:41;;;;;;;10.52;6.05;;;31.60;91.30;;;;;;5077787;28;20974;-71
2022/08/27 12:29:34;;;;;;;9.98;5.35;;;31.60;91.20;;;;;;5064425;28;20060;-73
2022/08/27 12:32:29;;;;;;;10.32;5.30;;;31.50;91.00;;;;;;5062329;28;20088;-71
2022/08/27 12:35:15;;;;;;;9.77;4.50;;;31.40;91.20;;;;;;5067805;28;20064;-71
2022/08/27 12:37:55;;;;;;;8.35;4.95;;;31.20;92.30;;;;;;5078002;28;20059;-71
2022/08/27 12:40:39;;;;;;;10.43;5.10;;;31.10;92.10;;;;;;5080598;28;20094;-71
2022/08/27 12:43:13;;;;;;;9.60;5.07;;;30.90;92.10;;;;;;5069206;28;20129;-71
2022/08/27 12:45:45;;;;;;;11.32;5.13;;;30.70;92.30;;;;;;5077553;28;20839;-71
2022/08/27 12:48:18;;;;;;;11.23;5.68;;;30.70;92.40;;;;;;5047593;28;20048;-73
2022/08/27 12:50:51;;;;;;;9.98;5.53;;;30.70;92.20;;;;;;5077826;28;20053;-72
2022/08/27 12:53:32;;;;;;;14.68;6.00;;;30.70;92.20;;;;;;5064148;28;20056;-71
2022/08/27 12:56:17;;;;;;;9.73;6.25;;;30.70;92.20;;;;;;5077418;28;20131;-72
2022/08/27 12:58:49;;;;;;;;;;;30.70;92.70;;;;;;5067602;28;20040;-71
2022/08/27 13:01:36;;;;;;;8.60;5.57;;;30.60;92.90;;;;;;5072508;28;19926;-72
2022/08/27 13:04:04;;;;;;;7.18;4.80;;;30.40;92.90;;;;;;5093221;28;20041;-71
2022/08/27 13:06:34;;;;;;;12.50;5.53;;;30.40;93.00;;;;;;5068136;28;20045;-71
2022/08/27 13:09:07;;;;;;;14.52;6.07;;;30.40;93.70;;;;;;5066759;28;20060;-72
2022/08/27 13:11:47;;;;;;;12.27;6.18;;;30.40;93.30;;;;;;5035758;28;20060;-72
2022/08/27 13:14:19;;;;;;;9.90;5.13;;;30.50;94.20;;;;;;5068819;28;20201;-72
2022/08/27 13:17:01;;;;;;;10.63;5.15;;;30.40;93.30;;;;;;5068893;28;20037;-72